sensor_id;sensor_type;location;lat;lon;timestamp;pressure;altitude;pressure_sealevel;temperature
60731;BMP280;46580;52.114;11.674;2022-11-03T00:01:05;101523.81;;;6.73
60731;BMP280;46580;52.114;11.674;2022-11-03T00:03:33;101532.75;;;6.65
60731;BMP280;46580;52.114;11.674;2022-11-03T00:05:59;101530.41;;;6.61
60731;BMP280;46580;52.114;11.674;2022-11-03T00:08:38;101525.03;;;6.67
60731;BMP280;46580;52.114;11.674;2022-11-03T00:13:32;101517.34;;;6.67
60731;BMP280;46580;52.114;11.674;2022-11-03T00:15:57;101514.31;;;6.75
60731;BMP280;46580;52.114;11.674;2022-11-03T00:18:23;101522.66;;;6.62
60731;BMP280;46580;52.114;11.674;2022-11-03T00:21:00;101516.47;;;6.49
60731;BMP280;46580;52.114;11.674;2022-11-03T00:23:29;101521.53;;;6.68
60731;BMP280;46580;52.114;11.674;2022-11-03T00:26:05;101513.19;;;6.64
60731;BMP280;46580;52.114;11.674;2022-11-03T00:28:32;101506.06;;;6.70
60731;BMP280;46580;52.114;11.674;2022-11-03T00:30:59;101513.44;;;6.60
60731;BMP280;46580;52.114;11.674;2022-11-03T00:33:25;101514.03;;;6.65
60731;BMP280;46580;52.114;11.674;2022-11-03T00:36:01;101515.31;;;6.73
60731;BMP280;46580;52.114;11.674;2022-11-03T00:38:28;101511.31;;;6.68
60731;BMP280;46580;52.114;11.674;2022-11-03T00:41:01;101501.22;;;6.65
60731;BMP280;46580;52.114;11.674;2022-11-03T00:43:30;101509.66;;;6.67
60731;BMP280;46580;52.114;11.674;2022-11-03T00:45:56;101508.44;;;6.57
60731;BMP280;46580;52.114;11.674;2022-11-03T00:48:21;101507.69;;;6.55
60731;BMP280;46580;52.114;11.674;2022-11-03T00:51:04;101500.63;;;6.60
60731;BMP280;46580;52.114;11.674;2022-11-03T00:53:31;101505.66;;;6.61
60731;BMP280;46580;52.114;11.674;2022-11-03T00:55:57;101489.41;;;6.62
60731;BMP280;46580;52.114;11.674;2022-11-03T00:58:22;101493.84;;;6.59
60731;BMP280;46580;52.114;11.674;2022-11-03T01:01:18;101492.78;;;6.63
60731;BMP280;46580;52.114;11.674;2022-11-03T01:03:45;101497.47;;;6.71
60731;BMP280;46580;52.114;11.674;2022-11-03T01:06:34;101481.31;;;6.71
60731;BMP280;46580;52.114;11.674;2022-11-03T01:09:29;101478.97;;;6.83
60731;BMP280;46580;52.114;11.674;2022-11-03T01:12:21;101481.59;;;6.98
60731;BMP280;46580;52.114;11.674;2022-11-03T01:14:49;101478.91;;;6.85
60731;BMP280;46580;52.114;11.674;2022-11-03T01:17:17;101479.19;;;6.95
60731;BMP280;46580;52.114;11.674;2022-11-03T01:19:43;101483.13;;;6.86
60731;BMP280;46580;52.114;11.674;2022-11-03T01:22:09;101472.88;;;6.86
60731;BMP280;46580;52.114;11.674;2022-11-03T01:24:35;101480.56;;;6.86
60731;BMP280;46580;52.114;11.674;2022-11-03T01:27:01;101473.72;;;6.86
60731;BMP280;46580;52.114;11.674;2022-11-03T01:29:26;101468.81;;;6.82
60731;BMP280;46580;52.114;11.674;2022-11-03T01:31:51;101464.81;;;6.76
60731;BMP280;46580;52.114;11.674;2022-11-03T01:34:19;101455.28;;;6.80
60731;BMP280;46580;52.114;11.674;2022-11-03T01:36:46;101463.91;;;6.77
60731;BMP280;46580;52.114;11.674;2022-11-03T01:39:13;101456.31;;;6.92
60731;BMP280;46580;52.114;11.674;2022-11-03T01:41:40;101444.72;;;6.86
60731;BMP280;46580;52.114;11.674;2022-11-03T01:46:33;101455.84;;;7.01
60731;BMP280;46580;52.114;11.674;2022-11-03T01:49:26;101456.47;;;7.06
60731;BMP280;46580;52.114;11.674;2022-11-03T01:52:04;101452.38;;;7.19
60731;BMP280;46580;52.114;11.674;2022-11-03T01:54:33;101449.19;;;7.30
60731;BMP280;46580;52.114;11.674;2022-11-03T01:56:59;101447.84;;;7.23
60731;BMP280;46580;52.114;11.674;2022-11-03T01:59:25;101445.84;;;7.13
60731;BMP280;46580;52.114;11.674;2022-11-03T02:01:51;101447.53;;;7.29
60731;BMP280;46580;52.114;11.674;2022-11-03T02:04:21;101445.06;;;7.43
60731;BMP280;46580;52.114;11.674;2022-11-03T02:06:51;101432.34;;;7.42
60731;BMP280;46580;52.114;11.674;2022-11-03T02:09:18;101429.53;;;7.31
60731;BMP280;46580;52.114;11.674;2022-11-03T02:11:44;101426.44;;;7.24
60731;BMP280;46580;52.114;11.674;2022-11-03T02:14:28;101410.50;;;7.20
60731;BMP280;46580;52.114;11.674;2022-11-03T02:16:56;101425.78;;;7.21
60731;BMP280;46580;52.114;11.674;2022-11-03T02:22:51;101414.16;;;6.99
60731;BMP280;46580;52.114;11.674;2022-11-03T02:25:47;101410.53;;;7.03
60731;BMP280;46580;52.114;11.674;2022-11-03T02:28:26;101410.09;;;6.95
60731;BMP280;46580;52.114;11.674;2022-11-03T02:33:34;101420.13;;;6.83
60731;BMP280;46580;52.114;11.674;2022-11-03T02:36:30;101408.53;;;6.93
60731;BMP280;46580;52.114;11.674;2022-11-03T02:39:01;101400.38;;;7.02
60731;BMP280;46580;52.114;11.674;2022-11-03T02:41:28;101406.13;;;6.90
60731;BMP280;46580;52.114;11.674;2022-11-03T02:43:56;101406.88;;;6.92
60731;BMP280;46580;52.114;11.674;2022-11-03T02:46:24;101399.84;;;6.95
60731;BMP280;46580;52.114;11.674;2022-11-03T02:48:51;101390.97;;;7.02
60731;BMP280;46580;52.114;11.674;2022-11-03T02:51:16;101397.09;;;7.00
60731;BMP280;46580;52.114;11.674;2022-11-03T02:53:50;101382.19;;;6.91
60731;BMP280;46580;52.114;11.674;2022-11-03T02:56:19;101376.75;;;6.97
60731;BMP280;46580;52.114;11.674;2022-11-03T03:01:30;101379.63;;;6.74
60731;BMP280;46580;52.114;11.674;2022-11-03T03:04:01;101379.81;;;6.71
60731;BMP280;46580;52.114;11.674;2022-11-03T03:06:34;101373.22;;;6.83
60731;BMP280;46580;52.114;11.674;2022-11-03T03:09:06;101374.69;;;6.71
60731;BMP280;46580;52.114;11.674;2022-11-03T03:11:33;101376.13;;;6.60
60731;BMP280;46580;52.114;11.674;2022-11-03T03:14:12;101363.63;;;6.54
60731;BMP280;46580;52.114;11.674;2022-11-03T03:16:47;101366.63;;;6.62
60731;BMP280;46580;52.114;11.674;2022-11-03T03:19:20;101361.91;;;6.71
60731;BMP280;46580;52.114;11.674;2022-11-03T03:21:49;101366.13;;;6.72
60731;BMP280;46580;52.114;11.674;2022-11-03T03:24:27;101365.63;;;6.81
60731;BMP280;46580;52.114;11.674;2022-11-03T03:26:56;101366.84;;;6.74
60731;BMP280;46580;52.114;11.674;2022-11-03T03:29:30;101353.09;;;6.77
60731;BMP280;46580;52.114;11.674;2022-11-03T03:32:00;101355.41;;;6.81
60731;BMP280;46580;52.114;11.674;2022-11-03T03:34:28;101350.38;;;6.63
60731;BMP280;46580;52.114;11.674;2022-11-03T03:36:57;101356.19;;;6.67
60731;BMP280;46580;52.114;11.674;2022-11-03T03:39:26;101359.13;;;6.59
60731;BMP280;46580;52.114;11.674;2022-11-03T03:41:54;101359.78;;;6.63
60731;BMP280;46580;52.114;11.674;2022-11-03T03:44:20;101354.22;;;6.71
60731;BMP280;46580;52.114;11.674;2022-11-03T03:46:59;101357.06;;;6.82
60731;BMP280;46580;52.114;11.674;2022-11-03T03:49:25;101361.91;;;6.71
60731;BMP280;46580;52.114;11.674;2022-11-03T03:51:51;101361.13;;;6.69
60731;BMP280;46580;52.114;11.674;2022-11-03T03:54:17;101354.22;;;6.71
60731;BMP280;46580;52.114;11.674;2022-11-03T03:57:03;101349.25;;;6.68
60731;BMP280;46580;52.114;11.674;2022-11-03T03:59:29;101350.06;;;6.69
60731;BMP280;46580;52.114;11.674;2022-11-03T04:01:55;101340.22;;;6.78
60731;BMP280;46580;52.114;11.674;2022-11-03T04:04:23;101336.75;;;6.79
60731;BMP280;46580;52.114;11.674;2022-11-03T04:06:49;101342.34;;;6.70
60731;BMP280;46580;52.114;11.674;2022-11-03T04:09:35;101341.19;;;6.76
60731;BMP280;46580;52.114;11.674;2022-11-03T04:12:00;101332.94;;;6.71
60731;BMP280;46580;52.114;11.674;2022-11-03T04:14:44;101339.63;;;6.73
60731;BMP280;46580;52.114;11.674;2022-11-03T04:17:28;101339.19;;;6.66
60731;BMP280;46580;52.114;11.674;2022-11-03T04:20:12;101333.91;;;6.68
60731;BMP280;46580;52.114;11.674;2022-11-03T04:22:56;101324.88;;;6.78
60731;BMP280;46580;52.114;11.674;2022-11-03T04:25:22;101330.81;;;6.79
60731;BMP280;46580;52.114;11.674;2022-11-03T04:27:47;101323.34;;;6.74
60731;BMP280;46580;52.114;11.674;2022-11-03T04:30:14;101331.13;;;6.73
60731;BMP280;46580;52.114;11.674;2022-11-03T04:32:45;101330.97;;;6.76
60731;BMP280;46580;52.114;11.674;2022-11-03T04:35:19;101328.41;;;6.76
60731;BMP280;46580;52.114;11.674;2022-11-03T04:40:39;101311.13;;;6.48
60731;BMP280;46580;52.114;11.674;2022-11-03T04:43:10;101310.03;;;6.53
60731;BMP280;46580;52.114;11.674;2022-11-03T04:45:36;101300.06;;;6.47
60731;BMP280;46580;52.114;11.674;2022-11-03T04:48:20;101302.50;;;6.50
60731;BMP280;46580;52.114;11.674;2022-11-03T04:50:46;101299.66;;;6.39
60731;BMP280;46580;52.114;11.674;2022-11-03T04:53:16;101306.19;;;6.28
60731;BMP280;46580;52.114;11.674;2022-11-03T04:55:42;101303.81;;;6.25
60731;BMP280;46580;52.114;11.674;2022-11-03T04:58:21;101298.69;;;6.25
60731;BMP280;46580;52.114;11.674;2022-11-03T05:00:49;101297.94;;;6.23
60731;BMP280;46580;52.114;11.674;2022-11-03T05:03:24;101287.13;;;6.18
60731;BMP280;46580;52.114;11.674;2022-11-03T05:05:51;101288.97;;;6.15
60731;BMP280;46580;52.114;11.674;2022-11-03T05:08:18;101285.06;;;6.08
60731;BMP280;46580;52.114;11.674;2022-11-03T05:10:44;101279.06;;;6.09
60731;BMP280;46580;52.114;11.674;2022-11-03T05:13:23;101268.53;;;6.15
60731;BMP280;46580;52.114;11.674;2022-11-03T05:15:50;101268.91;;;6.08
60731;BMP280;46580;52.114;11.674;2022-11-03T05:18:26;101265.53;;;6.07
60731;BMP280;46580;52.114;11.674;2022-11-03T05:21:04;101265.91;;;6.00
60731;BMP280;46580;52.114;11.674;2022-11-03T05:23:39;101255.31;;;6.07
60731;BMP280;46580;52.114;11.674;2022-11-03T05:26:06;101254.03;;;6.15
60731;BMP280;46580;52.114;11.674;2022-11-03T05:28:41;101263.06;;;6.06
60731;BMP280;46580;52.114;11.674;2022-11-03T05:31:26;101266.34;;;6.08
60731;BMP280;46580;52.114;11.674;2022-11-03T05:33:58;101258.63;;;6.09
60731;BMP280;46580;52.114;11.674;2022-11-03T05:36:29;101260.91;;;5.98
60731;BMP280;46580;52.114;11.674;2022-11-03T05:39:00;101248.09;;;5.82
60731;BMP280;46580;52.114;11.674;2022-11-03T05:41:29;101247.31;;;5.63
60731;BMP280;46580;52.114;11.674;2022-11-03T05:44:01;101241.88;;;5.53
60731;BMP280;46580;52.114;11.674;2022-11-03T05:46:32;101246.41;;;5.64
60731;BMP280;46580;52.114;11.674;2022-11-03T05:49:00;101251.53;;;5.64
60731;BMP280;46580;52.114;11.674;2022-11-03T05:51:40;101236.81;;;5.69
60731;BMP280;46580;52.114;11.674;2022-11-03T05:54:21;101229.56;;;5.78
60731;BMP280;46580;52.114;11.674;2022-11-03T05:56:47;101234.28;;;5.86
60731;BMP280;46580;52.114;11.674;2022-11-03T05:59:19;101234.88;;;5.91
60731;BMP280;46580;52.114;11.674;2022-11-03T06:01:47;101233.28;;;5.88
60731;BMP280;46580;52.114;11.674;2022-11-03T06:06:38;101237.00;;;5.99
60731;BMP280;46580;52.114;11.674;2022-11-03T06:09:18;101231.34;;;5.93
60731;BMP280;46580;52.114;11.674;2022-11-03T06:11:45;101240.75;;;5.93
60731;BMP280;46580;52.114;11.674;2022-11-03T06:14:18;101245.63;;;5.97
60731;BMP280;46580;52.114;11.674;2022-11-03T06:17:11;101244.44;;;6.04
60731;BMP280;46580;52.114;11.674;2022-11-03T06:19:46;101248.84;;;6.00
60731;BMP280;46580;52.114;11.674;2022-11-03T06:24:44;101238.63;;;6.00
60731;BMP280;46580;52.114;11.674;2022-11-03T06:27:15;101237.59;;;6.04
60731;BMP280;46580;52.114;11.674;2022-11-03T06:29:49;101235.63;;;6.09
60731;BMP280;46580;52.114;11.674;2022-11-03T06:32:16;101235.63;;;6.26
60731;BMP280;46580;52.114;11.674;2022-11-03T06:34:48;101231.34;;;6.26
60731;BMP280;46580;52.114;11.674;2022-11-03T06:37:23;101219.28;;;6.28
60731;BMP280;46580;52.114;11.674;2022-11-03T06:39:50;101229.00;;;6.22
60731;BMP280;46580;52.114;11.674;2022-11-03T06:42:19;101234.28;;;6.19
60731;BMP280;46580;52.114;11.674;2022-11-03T06:44:48;101233.97;;;6.25
60731;BMP280;46580;52.114;11.674;2022-11-03T06:47:25;101223.88;;;6.22
60731;BMP280;46580;52.114;11.674;2022-11-03T06:49:56;101232.00;;;6.30
60731;BMP280;46580;52.114;11.674;2022-11-03T06:52:26;101218.75;;;6.38
60731;BMP280;46580;52.114;11.674;2022-11-03T06:57:37;101211.41;;;6.32
60731;BMP280;46580;52.114;11.674;2022-11-03T07:05:32;101214.72;;;6.49
60731;BMP280;46580;52.114;11.674;2022-11-03T07:08:00;101222.31;;;6.51
60731;BMP280;46580;52.114;11.674;2022-11-03T07:10:30;101206.63;;;6.73
60731;BMP280;46580;52.114;11.674;2022-11-03T07:12:58;101205.69;;;6.74
60731;BMP280;46580;52.114;11.674;2022-11-03T07:15:27;101214.75;;;6.65
60731;BMP280;46580;52.114;11.674;2022-11-03T07:17:55;101212.97;;;6.67
60731;BMP280;46580;52.114;11.674;2022-11-03T07:20:21;101213.56;;;6.87
60731;BMP280;46580;52.114;11.674;2022-11-03T07:22:48;101203.06;;;6.91
60731;BMP280;46580;52.114;11.674;2022-11-03T07:25:17;101213.44;;;6.88
60731;BMP280;46580;52.114;11.674;2022-11-03T07:27:45;101213.31;;;7.06
60731;BMP280;46580;52.114;11.674;2022-11-03T07:30:23;101208.00;;;7.24
60731;BMP280;46580;52.114;11.674;2022-11-03T07:32:56;101204.53;;;7.10
60731;BMP280;46580;52.114;11.674;2022-11-03T07:35:29;101208.69;;;7.27
60731;BMP280;46580;52.114;11.674;2022-11-03T07:37:56;101204.19;;;7.31
60731;BMP280;46580;52.114;11.674;2022-11-03T07:40:24;101205.44;;;7.24
60731;BMP280;46580;52.114;11.674;2022-11-03T07:42:51;101200.72;;;7.32
60731;BMP280;46580;52.114;11.674;2022-11-03T07:45:48;101198.09;;;7.33
60731;BMP280;46580;52.114;11.674;2022-11-03T07:50:46;101191.50;;;7.58
60731;BMP280;46580;52.114;11.674;2022-11-03T07:53:20;101188.59;;;7.64
60731;BMP280;46580;52.114;11.674;2022-11-03T07:55:46;101187.72;;;7.50
60731;BMP280;46580;52.114;11.674;2022-11-03T07:58:24;101187.38;;;7.84
60731;BMP280;46580;52.114;11.674;2022-11-03T08:00:54;101177.88;;;7.58
60731;BMP280;46580;52.114;11.674;2022-11-03T08:03:52;101169.63;;;7.81
60731;BMP280;46580;52.114;11.674;2022-11-03T08:06:19;101169.13;;;7.75
60731;BMP280;46580;52.114;11.674;2022-11-03T08:08:44;101163.28;;;7.73
60731;BMP280;46580;52.114;11.674;2022-11-03T08:11:09;101163.00;;;7.78
60731;BMP280;46580;52.114;11.674;2022-11-03T08:13:35;101153.75;;;8.04
60731;BMP280;46580;52.114;11.674;2022-11-03T08:16:00;101151.56;;;8.12
60731;BMP280;46580;52.114;11.674;2022-11-03T08:18:26;101145.59;;;8.11
60731;BMP280;46580;52.114;11.674;2022-11-03T08:20:51;101139.50;;;8.14
60731;BMP280;46580;52.114;11.674;2022-11-03T08:23:17;101139.94;;;8.20
60731;BMP280;46580;52.114;11.674;2022-11-03T08:25:43;101123.28;;;8.13
60731;BMP280;46580;52.114;11.674;2022-11-03T08:28:08;101125.38;;;8.34
60731;BMP280;46580;52.114;11.674;2022-11-03T08:30:36;101127.28;;;8.31
60731;BMP280;46580;52.114;11.674;2022-11-03T08:33:02;101121.06;;;8.48
60731;BMP280;46580;52.114;11.674;2022-11-03T08:35:28;101115.34;;;8.57
60731;BMP280;46580;52.114;11.674;2022-11-03T08:37:53;101118.03;;;8.42
60731;BMP280;46580;52.114;11.674;2022-11-03T08:40:19;101117.66;;;8.48
60731;BMP280;46580;52.114;11.674;2022-11-03T08:42:44;101102.44;;;8.45
60731;BMP280;46580;52.114;11.674;2022-11-03T08:45:10;101103.56;;;8.41
60731;BMP280;46580;52.114;11.674;2022-11-03T08:47:36;101105.06;;;8.57
60731;BMP280;46580;52.114;11.674;2022-11-03T08:50:03;101099.72;;;8.48
60731;BMP280;46580;52.114;11.674;2022-11-03T08:52:28;101091.75;;;8.78
60731;BMP280;46580;52.114;11.674;2022-11-03T08:54:54;101091.00;;;8.76
60731;BMP280;46580;52.114;11.674;2022-11-03T08:57:19;101088.16;;;8.80
60731;BMP280;46580;52.114;11.674;2022-11-03T08:59:45;101078.78;;;8.93
60731;BMP280;46580;52.114;11.674;2022-11-03T09:02:11;101084.44;;;8.98
60731;BMP280;46580;52.114;11.674;2022-11-03T09:04:36;101078.28;;;9.00
60731;BMP280;46580;52.114;11.674;2022-11-03T09:07:02;101082.72;;;9.10
60731;BMP280;46580;52.114;11.674;2022-11-03T09:09:27;101081.53;;;9.16
60731;BMP280;46580;52.114;11.674;2022-11-03T09:11:53;101071.03;;;9.19
60731;BMP280;46580;52.114;11.674;2022-11-03T09:14:18;101069.69;;;9.13
60731;BMP280;46580;52.114;11.674;2022-11-03T09:16:44;101070.69;;;9.11
60731;BMP280;46580;52.114;11.674;2022-11-03T09:19:09;101067.47;;;9.21
60731;BMP280;46580;52.114;11.674;2022-11-03T09:21:37;101067.91;;;9.40
60731;BMP280;46580;52.114;11.674;2022-11-03T09:24:02;101055.03;;;9.28
60731;BMP280;46580;52.114;11.674;2022-11-03T09:26:28;101053.00;;;9.45
60731;BMP280;46580;52.114;11.674;2022-11-03T09:28:53;101056.81;;;9.39
60731;BMP280;46580;52.114;11.674;2022-11-03T09:31:19;101046.41;;;9.28
60731;BMP280;46580;52.114;11.674;2022-11-03T09:33:45;101048.44;;;9.24
60731;BMP280;46580;52.114;11.674;2022-11-03T09:36:10;101037.81;;;9.42
60731;BMP280;46580;52.114;11.674;2022-11-03T09:38:36;101033.41;;;9.56
60731;BMP280;46580;52.114;11.674;2022-11-03T09:41:03;101031.66;;;9.68
60731;BMP280;46580;52.114;11.674;2022-11-03T09:43:30;101025.06;;;9.77
60731;BMP280;46580;52.114;11.674;2022-11-03T09:45:57;101026.41;;;9.70
60731;BMP280;46580;52.114;11.674;2022-11-03T09:48:23;101024.84;;;9.67
60731;BMP280;46580;52.114;11.674;2022-11-03T09:50:51;101011.06;;;9.93
60731;BMP280;46580;52.114;11.674;2022-11-03T09:53:17;101013.97;;;9.88
60731;BMP280;46580;52.114;11.674;2022-11-03T09:55:43;101006.16;;;9.90
60731;BMP280;46580;52.114;11.674;2022-11-03T09:58:13;101001.63;;;9.93
60731;BMP280;46580;52.114;11.674;2022-11-03T10:00:39;100992.78;;;9.85
60731;BMP280;46580;52.114;11.674;2022-11-03T10:03:04;100997.47;;;10.15
60731;BMP280;46580;52.114;11.674;2022-11-03T10:05:30;100997.56;;;10.14
60731;BMP280;46580;52.114;11.674;2022-11-03T10:07:58;100996.00;;;10.11
60731;BMP280;46580;52.114;11.674;2022-11-03T10:10:26;100991.16;;;10.19
60731;BMP280;46580;52.114;11.674;2022-11-03T10:12:54;100978.69;;;10.25
60731;BMP280;46580;52.114;11.674;2022-11-03T10:15:22;100983.41;;;10.31
60731;BMP280;46580;52.114;11.674;2022-11-03T10:17:47;100977.03;;;10.24
60731;BMP280;46580;52.114;11.674;2022-11-03T10:20:16;100970.28;;;10.46
60731;BMP280;46580;52.114;11.674;2022-11-03T10:22:44;100972.69;;;10.37
60731;BMP280;46580;52.114;11.674;2022-11-03T10:25:39;100972.84;;;10.46
60731;BMP280;46580;52.114;11.674;2022-11-03T10:28:25;100964.66;;;10.41
60731;BMP280;46580;52.114;11.674;2022-11-03T10:30:59;100967.06;;;10.55
60731;BMP280;46580;52.114;11.674;2022-11-03T10:33:32;100969.00;;;10.75
60731;BMP280;46580;52.114;11.674;2022-11-03T10:36:41;100973.72;;;10.80
60731;BMP280;46580;52.114;11.674;2022-11-03T10:38:48;100967.81;;;10.68
60731;BMP280;46580;52.114;11.674;2022-11-03T10:41:25;100960.94;;;10.79
60731;BMP280;46580;52.114;11.674;2022-11-03T10:46:32;100952.72;;;11.08
60731;BMP280;46580;52.114;11.674;2022-11-03T10:49:10;100950.25;;;11.06
60731;BMP280;46580;52.114;11.674;2022-11-03T10:51:37;100946.53;;;11.10
60731;BMP280;46580;52.114;11.674;2022-11-03T10:54:04;100938.47;;;11.25
60731;BMP280;46580;52.114;11.674;2022-11-03T10:56:31;100935.00;;;11.37
60731;BMP280;46580;52.114;11.674;2022-11-03T10:58:58;100934.53;;;11.43
60731;BMP280;46580;52.114;11.674;2022-11-03T11:01:24;100929.28;;;11.44
60731;BMP280;46580;52.114;11.674;2022-11-03T11:03:50;100922.00;;;11.92
60731;BMP280;46580;52.114;11.674;2022-11-03T11:06:19;100920.25;;;11.92
60731;BMP280;46580;52.114;11.674;2022-11-03T11:08:48;100906.97;;;11.97
60731;BMP280;46580;52.114;11.674;2022-11-03T11:11:20;100904.19;;;12.20
60731;BMP280;46580;52.114;11.674;2022-11-03T11:16:59;100886.06;;;12.41
60731;BMP280;46580;52.114;11.674;2022-11-03T11:22:34;100881.84;;;12.71
60731;BMP280;46580;52.114;11.674;2022-11-03T11:24:59;100885.00;;;12.74
60731;BMP280;46580;52.114;11.674;2022-11-03T11:30:04;100866.44;;;13.09
60731;BMP280;46580;52.114;11.674;2022-11-03T11:35:11;100853.13;;;13.43
60731;BMP280;46580;52.114;11.674;2022-11-03T11:37:40;100841.78;;;13.64
60731;BMP280;46580;52.114;11.674;2022-11-03T11:48:29;100840.44;;;13.78
60731;BMP280;46580;52.114;11.674;2022-11-03T11:50:56;100840.97;;;13.82
60731;BMP280;46580;52.114;11.674;2022-11-03T11:53:22;100829.91;;;14.00
60731;BMP280;46580;52.114;11.674;2022-11-03T11:55:59;100812.19;;;14.05
60731;BMP280;46580;52.114;11.674;2022-11-03T11:58:37;100808.34;;;13.90
60731;BMP280;46580;52.114;11.674;2022-11-03T12:01:23;100800.63;;;13.99
60731;BMP280;46580;52.114;11.674;2022-11-03T12:03:54;100806.06;;;14.06
60731;BMP280;46580;52.114;11.674;2022-11-03T12:06:34;100784.94;;;14.38
60731;BMP280;46580;52.114;11.674;2022-11-03T12:09:15;100781.84;;;14.79
60731;BMP280;46580;52.114;11.674;2022-11-03T12:16:52;100750.69;;;14.98
60731;BMP280;46580;52.114;11.674;2022-11-03T12:22:09;100736.72;;;14.72
60731;BMP280;46580;52.114;11.674;2022-11-03T12:24:45;100735.06;;;14.81
60731;BMP280;46580;52.114;11.674;2022-11-03T12:29:50;100719.28;;;14.65
60731;BMP280;46580;52.114;11.674;2022-11-03T12:32:16;100710.50;;;14.40
60731;BMP280;46580;52.114;11.674;2022-11-03T12:34:42;100707.81;;;14.32
60731;BMP280;46580;52.114;11.674;2022-11-03T12:37:08;100699.09;;;14.33
60731;BMP280;46580;52.114;11.674;2022-11-03T12:39:34;100686.44;;;14.21
60731;BMP280;46580;52.114;11.674;2022-11-03T12:41:59;100685.44;;;14.40
60731;BMP280;46580;52.114;11.674;2022-11-03T12:44:25;100690.88;;;14.47
60731;BMP280;46580;52.114;11.674;2022-11-03T12:46:51;100687.25;;;14.66
60731;BMP280;46580;52.114;11.674;2022-11-03T12:49:16;100681.69;;;14.61
60731;BMP280;46580;52.114;11.674;2022-11-03T12:51:42;100671.25;;;14.80
60731;BMP280;46580;52.114;11.674;2022-11-03T12:54:07;100665.94;;;14.72
60731;BMP280;46580;52.114;11.674;2022-11-03T12:56:35;100664.16;;;14.82
60731;BMP280;46580;52.114;11.674;2022-11-03T12:59:01;100660.25;;;14.69
60731;BMP280;46580;52.114;11.674;2022-11-03T13:01:26;100650.97;;;14.66
60731;BMP280;46580;52.114;11.674;2022-11-03T13:03:51;100658.66;;;14.58
60731;BMP280;46580;52.114;11.674;2022-11-03T13:06:17;100648.78;;;14.71
60731;BMP280;46580;52.114;11.674;2022-11-03T13:08:43;100640.50;;;14.68
60731;BMP280;46580;52.114;11.674;2022-11-03T13:11:08;100651.63;;;14.42
60731;BMP280;46580;52.114;11.674;2022-11-03T13:13:52;100638.59;;;14.25
60731;BMP280;46580;52.114;11.674;2022-11-03T13:16:18;100638.81;;;14.40
60731;BMP280;46580;52.114;11.674;2022-11-03T13:18:44;100630.16;;;14.23
60731;BMP280;46580;52.114;11.674;2022-11-03T13:21:09;100628.06;;;14.35
60731;BMP280;46580;52.114;11.674;2022-11-03T13:23:35;100618.94;;;14.41
60731;BMP280;46580;52.114;11.674;2022-11-03T13:26:00;100617.31;;;14.31
60731;BMP280;46580;52.114;11.674;2022-11-03T13:28:26;100605.88;;;14.33
60731;BMP280;46580;52.114;11.674;2022-11-03T13:30:51;100602.34;;;14.34
60731;BMP280;46580;52.114;11.674;2022-11-03T13:33:16;100578.91;;;14.26
60731;BMP280;46580;52.114;11.674;2022-11-03T13:35:42;100576.19;;;14.28
60731;BMP280;46580;52.114;11.674;2022-11-03T13:38:07;100574.44;;;14.28
60731;BMP280;46580;52.114;11.674;2022-11-03T13:40:32;100572.53;;;14.21
60731;BMP280;46580;52.114;11.674;2022-11-03T13:42:58;100563.31;;;14.09
60731;BMP280;46580;52.114;11.674;2022-11-03T13:45:23;100559.75;;;14.10
60731;BMP280;46580;52.114;11.674;2022-11-03T13:47:49;100557.63;;;13.96
60731;BMP280;46580;52.114;11.674;2022-11-03T13:50:14;100556.97;;;13.95
60731;BMP280;46580;52.114;11.674;2022-11-03T13:52:40;100558.44;;;13.97
60731;BMP280;46580;52.114;11.674;2022-11-03T13:55:05;100561.59;;;13.91
60731;BMP280;46580;52.114;11.674;2022-11-03T13:57:31;100552.88;;;13.92
60731;BMP280;46580;52.114;11.674;2022-11-03T13:59:56;100544.16;;;13.93
60731;BMP280;46580;52.114;11.674;2022-11-03T14:02:24;100545.81;;;13.94
60731;BMP280;46580;52.114;11.674;2022-11-03T14:04:49;100537.94;;;13.86
60731;BMP280;46580;52.114;11.674;2022-11-03T14:07:15;100540.63;;;13.75
60731;BMP280;46580;52.114;11.674;2022-11-03T14:09:40;100538.03;;;13.75
60731;BMP280;46580;52.114;11.674;2022-11-03T14:12:06;100535.06;;;13.71
60731;BMP280;46580;52.114;11.674;2022-11-03T14:14:50;100531.13;;;13.85
60731;BMP280;46580;52.114;11.674;2022-11-03T14:17:15;100513.13;;;13.75
60731;BMP280;46580;52.114;11.674;2022-11-03T14:19:41;100517.75;;;13.80
60731;BMP280;46580;52.114;11.674;2022-11-03T14:22:06;100516.16;;;13.70
60731;BMP280;46580;52.114;11.674;2022-11-03T14:24:32;100521.59;;;13.86
60731;BMP280;46580;52.114;11.674;2022-11-03T14:26:57;100516.69;;;13.83
60731;BMP280;46580;52.114;11.674;2022-11-03T14:29:22;100509.84;;;13.91
60731;BMP280;46580;52.114;11.674;2022-11-03T14:31:48;100509.03;;;13.81
60731;BMP280;46580;52.114;11.674;2022-11-03T14:34:15;100511.22;;;13.76
60731;BMP280;46580;52.114;11.674;2022-11-03T14:36:41;100498.84;;;13.80
60731;BMP280;46580;52.114;11.674;2022-11-03T14:39:06;100491.91;;;13.80
60731;BMP280;46580;52.114;11.674;2022-11-03T14:41:33;100474.47;;;13.82
60731;BMP280;46580;52.114;11.674;2022-11-03T14:44:17;100482.66;;;13.69
60731;BMP280;46580;52.114;11.674;2022-11-03T14:46:42;100473.38;;;13.75
60731;BMP280;46580;52.114;11.674;2022-11-03T14:49:08;100466.75;;;13.73
60731;BMP280;46580;52.114;11.674;2022-11-03T14:51:33;100467.25;;;13.76
60731;BMP280;46580;52.114;11.674;2022-11-03T14:53:59;100454.06;;;13.70
60731;BMP280;46580;52.114;11.674;2022-11-03T14:56:24;100436.28;;;13.58
60731;BMP280;46580;52.114;11.674;2022-11-03T14:58:50;100427.03;;;13.56
60731;BMP280;46580;52.114;11.674;2022-11-03T15:01:18;100423.44;;;13.39
60731;BMP280;46580;52.114;11.674;2022-11-03T15:03:50;100430.78;;;13.35
60731;BMP280;46580;52.114;11.674;2022-11-03T15:06:18;100437.88;;;13.33
60731;BMP280;46580;52.114;11.674;2022-11-03T15:08:45;100429.19;;;13.24
60731;BMP280;46580;52.114;11.674;2022-11-03T15:11:11;100424.03;;;13.15